createdAt,value
2022-11-10T00:01:00.855Z,240.10
2022-11-10T00:03:30.260Z,241.22
2022-11-10T00:05:55.155Z,246.34
2022-11-10T00:08:21.437Z,262.58
2022-11-10T00:11:02.363Z,265.26
2022-11-10T00:13:36.631Z,272.98
2022-11-10T00:16:20.522Z,275.85
2022-11-10T00:18:49.363Z,288.61
2022-11-10T00:21:16.776Z,284.53
2022-11-10T00:23:42.748Z,289.73
2022-11-10T00:26:17.316Z,281.39
2022-11-10T00:28:45.754Z,279.97
2022-11-10T00:31:15.309Z,279.62
2022-11-10T00:33:41.743Z,280.16
2022-11-10T00:36:07.871Z,276.67
2022-11-10T00:38:33.795Z,274.04
2022-11-10T00:40:59.104Z,283.80
2022-11-10T00:43:26.713Z,297.30
2022-11-10T00:45:56.428Z,285.74
2022-11-10T00:48:21.939Z,276.45
2022-11-10T00:50:47.041Z,291.67
2022-11-10T00:53:13.023Z,290.31
2022-11-10T00:55:40.517Z,279.33
2022-11-10T00:58:05.682Z,280.60
2022-11-10T01:00:31.549Z,270.71
2022-11-10T01:02:59.677Z,268.08
2022-11-10T01:05:25.594Z,262.43
2022-11-10T01:07:52.185Z,254.75
2022-11-10T01:10:17.441Z,240.37
2022-11-10T01:12:42.535Z,251.87
2022-11-10T01:15:09.736Z,254.58
2022-11-10T01:17:35.209Z,260.71
2022-11-10T01:20:02.868Z,263.89
2022-11-10T01:22:28.586Z,262.15
2022-11-10T01:24:53.790Z,263.17
2022-11-10T01:27:18.940Z,249.39
2022-11-10T01:29:44.761Z,260.81
2022-11-10T01:32:09.559Z,254.66
2022-11-10T01:34:34.547Z,251.00
2022-11-10T01:37:02.896Z,258.67
2022-11-10T01:39:28.906Z,258.32
2022-11-10T01:41:53.759Z,265.57
2022-11-10T01:44:25.008Z,260.99
2022-11-10T01:46:50.369Z,255.01
2022-11-10T01:49:18.999Z,252.94
2022-11-10T01:51:54.134Z,257.18
2022-11-10T01:54:29.730Z,264.28
2022-11-10T01:57:03.438Z,270.04
2022-11-10T01:59:33.711Z,280.44
2022-11-10T02:02:13.046Z,268.06
2022-11-10T02:04:40.398Z,282.30
2022-11-10T02:07:06.385Z,273.20
2022-11-10T02:09:34.242Z,268.27
2022-11-10T02:12:01.097Z,273.93
2022-11-10T02:14:30.905Z,278.40
2022-11-10T02:16:56.363Z,269.47
2022-11-10T02:19:25.463Z,278.65
2022-11-10T02:21:55.276Z,274.98
2022-11-10T02:24:21.965Z,272.46
2022-11-10T02:26:54.101Z,276.47
2022-11-10T02:29:20.518Z,275.00
2022-11-10T02:31:46.026Z,279.18
2022-11-10T02:34:10.781Z,266.74
2022-11-10T02:36:37.466Z,265.34
2022-11-10T02:39:05.790Z,266.15
2022-11-10T02:41:33.763Z,269.13
2022-11-10T02:44:07.415Z,266.25
2022-11-10T02:46:32.823Z,260.06
2022-11-10T02:49:01.359Z,261.31
2022-11-10T02:51:26.304Z,264.53
2022-11-10T02:53:51.509Z,261.47
2022-11-10T02:56:22.391Z,258.24
2022-11-10T02:58:47.357Z,265.96
2022-11-10T03:01:12.474Z,265.21
2022-11-10T03:03:39.189Z,275.89
2022-11-10T03:06:04.142Z,272.51
2022-11-10T03:08:29.365Z,277.41
2022-11-10T03:10:58.700Z,281.78
2022-11-10T03:13:35.649Z,286.20
2022-11-10T03:16:13.175Z,300.14
2022-11-10T03:18:37.762Z,306.42
2022-11-10T03:21:02.604Z,299.03
2022-11-10T03:23:28.488Z,296.66
2022-11-10T03:25:53.800Z,300.21
2022-11-10T03:28:20.323Z,297.82
2022-11-10T03:30:49.335Z,292.27
2022-11-10T03:33:16.419Z,287.00
2022-11-10T03:35:41.459Z,298.35
2022-11-10T03:38:07.856Z,302.74
2022-11-10T03:40:56.854Z,298.95
2022-11-10T03:43:18.984Z,301.11
2022-11-10T03:45:49.227Z,304.35
2022-11-10T03:48:14.237Z,310.57
2022-11-10T03:50:39.493Z,317.60
2022-11-10T03:53:06.577Z,327.48
2022-11-10T03:55:32.041Z,335.99
2022-11-10T03:57:59.612Z,338.44
2022-11-10T04:00:25.407Z,335.13
2022-11-10T04:02:53.135Z,318.87
2022-11-10T04:05:30.382Z,330.85
2022-11-10T04:08:14.323Z,326.96
2022-11-10T04:10:40.454Z,305.39
2022-11-10T04:13:18.793Z,303.36
2022-11-10T04:15:46.888Z,302.59
2022-11-10T04:18:24.936Z,302.83
2022-11-10T04:20:50.606Z,304.94
2022-11-10T04:23:29.380Z,310.61
2022-11-10T04:26:06.418Z,323.70
2022-11-10T04:28:33.008Z,321.43
2022-11-10T04:31:00.504Z,320.42
2022-11-10T04:33:28.064Z,333.63
2022-11-10T04:35:54.048Z,314.94
2022-11-10T04:38:19.290Z,330.76
2022-11-10T04:40:46.399Z,330.20
2022-11-10T04:43:15.033Z,312.83
2022-11-10T04:45:39.932Z,315.25
2022-11-10T04:48:04.825Z,318.33
2022-11-10T04:50:33.564Z,309.66
2022-11-10T04:52:58.732Z,320.72
2022-11-10T04:55:25.154Z,317.61
2022-11-10T04:57:51.392Z,322.79
2022-11-10T05:00:18.894Z,310.93
2022-11-10T05:02:44.198Z,326.45
2022-11-10T05:05:11.964Z,311.01
2022-11-10T05:07:39.421Z,312.25
2022-11-10T05:10:04.167Z,317.51
2022-11-10T05:12:30.296Z,313.82
2022-11-10T05:14:56.319Z,331.83
2022-11-10T05:17:24.338Z,308.15
2022-11-10T05:19:51.439Z,306.02
2022-11-10T05:22:17.166Z,303.30
2022-11-10T05:24:44.928Z,316.75
2022-11-10T05:27:11.450Z,345.56
2022-11-10T05:29:36.405Z,367.24
2022-11-10T05:32:01.566Z,360.45
2022-11-10T05:34:27.433Z,349.00
2022-11-10T05:36:53.971Z,346.14
2022-11-10T05:39:18.764Z,318.72
2022-11-10T05:41:48.076Z,312.09
2022-11-10T05:44:13.019Z,312.01
2022-11-10T05:46:37.709Z,308.92
2022-11-10T05:49:03.535Z,306.98
2022-11-10T05:51:28.790Z,317.67
2022-11-10T05:53:53.790Z,319.86
2022-11-10T05:56:19.920Z,330.72
2022-11-10T05:58:47.625Z,314.03
2022-11-10T06:01:12.826Z,321.03
2022-11-10T06:03:39.018Z,316.32
2022-11-10T06:06:03.903Z,313.00
2022-11-10T06:08:35.202Z,305.45
2022-11-10T06:11:09.013Z,309.72
2022-11-10T06:13:34.612Z,307.83
2022-11-10T06:16:03.611Z,302.17
2022-11-10T06:18:29.799Z,306.78
2022-11-10T06:20:55.352Z,311.69
2022-11-10T06:23:21.206Z,308.39
2022-11-10T06:25:47.725Z,311.06
2022-11-10T06:28:15.061Z,306.35
2022-11-10T06:30:42.227Z,316.62
2022-11-10T06:33:10.969Z,303.65
2022-11-10T06:35:36.433Z,312.18
2022-11-10T06:38:03.513Z,313.49
2022-11-10T06:40:29.649Z,312.28
2022-11-10T06:42:57.987Z,310.73
2022-11-10T06:45:28.722Z,312.45
2022-11-10T06:48:10.800Z,327.02
2022-11-10T06:50:39.259Z,324.37
2022-11-10T06:53:05.330Z,331.62
2022-11-10T06:55:30.690Z,325.60
2022-11-10T06:57:55.735Z,337.06
2022-11-10T07:00:24.171Z,333.81
2022-11-10T07:02:49.165Z,335.32
2022-11-10T07:05:19.839Z,331.80
2022-11-10T07:07:48.131Z,327.77
2022-11-10T07:10:13.395Z,326.98
2022-11-10T07:12:38.345Z,320.17
2022-11-10T07:15:04.209Z,310.67
2022-11-10T07:17:28.700Z,323.82
2022-11-10T07:19:53.698Z,321.34
2022-11-10T07:22:20.037Z,335.72
2022-11-10T07:24:47.553Z,323.88
2022-11-10T07:27:12.483Z,314.86
2022-11-10T07:29:48.136Z,306.37
2022-11-10T07:32:12.778Z,303.72
2022-11-10T07:34:44.686Z,315.42
2022-11-10T07:37:10.211Z,340.39
2022-11-10T07:39:35.211Z,356.36
2022-11-10T07:42:03.695Z,364.16
2022-11-10T07:44:28.741Z,413.13
2022-11-10T07:46:53.649Z,473.29
2022-11-10T07:49:19.221Z,438.55
2022-11-10T07:51:46.213Z,392.50
2022-11-10T07:54:11.018Z,350.10
2022-11-10T07:56:42.720Z,355.34
2022-11-10T07:59:14.975Z,350.50
2022-11-10T08:01:40.686Z,368.24
2022-11-10T08:04:05.387Z,387.68
2022-11-10T08:06:34.904Z,357.51
2022-11-10T08:09:04.920Z,357.11
2022-11-10T08:11:32.740Z,351.50
2022-11-10T08:14:00.630Z,346.93
2022-11-10T08:16:42.312Z,376.44
2022-11-10T08:19:20.289Z,365.67
2022-11-10T08:21:46.221Z,332.80
2022-11-10T08:24:17.146Z,311.08
2022-11-10T08:26:45.602Z,304.98
2022-11-10T08:29:10.241Z,304.39
2022-11-10T08:31:38.184Z,332.09
2022-11-10T08:34:07.856Z,316.25
2022-11-10T08:36:32.713Z,310.15
2022-11-10T08:39:00.050Z,311.75
2022-11-10T08:41:44.715Z,323.84
2022-11-10T08:44:19.601Z,327.68
2022-11-10T08:46:53.939Z,335.88
2022-11-10T08:49:23.342Z,359.31
2022-11-10T08:51:48.135Z,329.12
2022-11-10T08:54:14.116Z,323.96
2022-11-10T08:56:39.107Z,326.52
2022-11-10T08:59:03.787Z,368.54
2022-11-10T09:01:29.781Z,364.31
2022-11-10T09:03:54.575Z,353.65
2022-11-10T09:06:31.556Z,340.77
2022-11-10T09:08:56.660Z,336.71
2022-11-10T09:11:21.296Z,342.67
2022-11-10T09:13:45.863Z,329.03
2022-11-10T09:16:12.060Z,338.85
2022-11-10T09:18:36.958Z,326.08
2022-11-10T09:21:05.217Z,333.49
2022-11-10T09:24:08.540Z,348.37
2022-11-10T09:26:36.608Z,352.21
2022-11-10T09:29:01.926Z,364.55
2022-11-10T09:31:26.682Z,356.78
2022-11-10T09:34:08.613Z,329.11
2022-11-10T09:36:36.327Z,335.56
2022-11-10T09:39:01.386Z,338.44
2022-11-10T09:41:30.117Z,362.83
2022-11-10T09:44:14.781Z,356.46
2022-11-10T09:46:49.048Z,344.68
2022-11-10T09:49:39.801Z,434.00
2022-11-10T09:52:12.177Z,467.51
2022-11-10T09:55:02.117Z,423.01
2022-11-10T09:57:30.176Z,360.06
2022-11-10T09:59:59.217Z,347.82
2022-11-10T10:02:40.770Z,364.25
2022-11-10T10:05:51.863Z,379.54
2022-11-10T10:08:35.593Z,368.48
2022-11-10T10:11:26.861Z,332.07
2022-11-10T10:14:27.911Z,358.72
2022-11-10T10:17:07.498Z,331.67
2022-11-10T10:19:58.256Z,326.17
2022-11-10T10:22:54.226Z,334.73
2022-11-10T10:25:32.598Z,405.72
2022-11-10T10:28:15.482Z,354.73
2022-11-10T10:30:40.461Z,386.13
2022-11-10T10:33:20.210Z,400.91
2022-11-10T10:35:54.468Z,386.45
2022-11-10T10:38:29.822Z,374.15
2022-11-10T10:41:00.410Z,279.28
2022-11-10T10:43:27.506Z,291.50
2022-11-10T10:46:10.887Z,302.98
2022-11-10T10:48:47.789Z,316.44
2022-11-10T10:51:33.613Z,315.75
2022-11-10T10:54:00.193Z,286.81
2022-11-10T10:56:35.086Z,310.29
2022-11-10T10:59:09.439Z,293.22
2022-11-10T11:01:37.382Z,295.08
2022-11-10T11:04:30.471Z,294.79
2022-11-10T11:07:02.765Z,285.34
2022-11-10T11:09:33.011Z,262.75
2022-11-10T11:12:09.889Z,263.89
2022-11-10T11:14:40.627Z,260.23
2022-11-10T11:17:23.321Z,255.04
2022-11-10T11:20:02.538Z,245.56
2022-11-10T11:23:02.558Z,233.17
2022-11-10T11:25:42.816Z,239.90
2022-11-10T11:28:31.726Z,252.56
2022-11-10T11:31:18.858Z,250.53
2022-11-10T11:33:56.702Z,254.99
2022-11-10T11:36:45.826Z,253.56
2022-11-10T11:39:36.614Z,238.18
2022-11-10T11:42:49.033Z,222.37
2022-11-10T11:45:27.670Z,217.36
2022-11-10T11:48:29.780Z,229.83
2022-11-10T11:51:36.510Z,224.40
2022-11-10T11:54:36.476Z,187.50
2022-11-10T11:57:24.116Z,187.71
2022-11-10T12:00:09.788Z,162.42
2022-11-10T12:03:07.882Z,159.14
2022-11-10T12:05:49.253Z,157.97
2022-11-10T12:08:31.471Z,159.24
2022-11-10T12:11:16.171Z,148.33
2022-11-10T12:13:55.404Z,147.69
2022-11-10T12:16:29.165Z,141.36
2022-11-10T12:19:19.152Z,150.23
2022-11-10T12:21:57.264Z,137.57
2022-11-10T12:24:54.154Z,137.51
2022-11-10T12:27:36.371Z,141.73
2022-11-10T12:30:12.984Z,136.65
2022-11-10T12:32:57.900Z,137.07
2022-11-10T12:35:29.501Z,143.19
2022-11-10T12:38:06.959Z,114.36
2022-11-10T12:40:42.151Z,104.48
2022-11-10T12:43:26.801Z,114.75
2022-11-10T12:46:00.871Z,122.79
2022-11-10T12:48:46.190Z,117.79
2022-11-10T12:51:25.832Z,126.36
2022-11-10T12:53:56.528Z,117.46
2022-11-10T12:56:32.475Z,108.55
2022-11-10T12:59:35.263Z,102.91
2022-11-10T13:02:14.403Z,101.72
2022-11-10T13:04:50.766Z,97.79
2022-11-10T13:07:17.171Z,89.06
2022-11-10T13:09:47.421Z,101.02
2022-11-10T13:12:32.383Z,98.30
2022-11-10T13:15:00.421Z,96.68
2022-11-10T13:17:58.479Z,125.50
2022-11-10T13:20:56.156Z,162.75
2022-11-10T13:23:36.099Z,164.10
2022-11-10T13:26:05.981Z,260.42
2022-11-10T13:29:23.863Z,363.90
2022-11-10T13:31:59.977Z,353.25
2022-11-10T13:34:35.530Z,327.45
2022-11-10T13:37:02.426Z,195.43
2022-11-10T13:39:53.029Z,132.45
2022-11-10T13:42:32.292Z,109.16
2022-11-10T13:45:21.732Z,112.34
2022-11-10T13:48:10.632Z,154.82
2022-11-10T13:50:57.301Z,166.25
2022-11-10T13:53:46.366Z,129.27
2022-11-10T13:56:41.624Z,174.46
2022-11-10T13:59:27.973Z,223.75
2022-11-10T14:01:53.030Z,130.27
2022-11-10T14:04:49.165Z,111.70
2022-11-10T14:07:22.864Z,95.90
2022-11-10T14:09:53.646Z,77.71
2022-11-10T14:12:34.369Z,87.67
2022-11-10T14:15:08.175Z,87.36
2022-11-10T14:17:42.952Z,80.21
2022-11-10T14:20:37.969Z,94.16
2022-11-10T14:23:32.233Z,91.08
2022-11-10T14:26:05.612Z,119.34
2022-11-10T14:28:33.836Z,164.45
2022-11-10T14:31:01.891Z,173.00
2022-11-10T14:33:29.812Z,170.25
2022-11-10T14:36:10.423Z,158.68
2022-11-10T14:38:37.478Z,328.65
2022-11-10T14:41:07.498Z,274.63
2022-11-10T14:43:35.833Z,272.29
2022-11-10T14:46:05.176Z,287.27
2022-11-10T14:48:36.773Z,308.96
2022-11-10T14:51:16.270Z,393.11
2022-11-10T14:53:51.925Z,306.00
2022-11-10T14:56:27.051Z,291.02
2022-11-10T14:58:54.466Z,296.05
2022-11-10T15:01:33.960Z,326.21
2022-11-10T15:04:00.438Z,289.01
2022-11-10T15:06:30.139Z,279.87
2022-11-10T15:08:55.097Z,311.18
2022-11-10T15:11:42.781Z,323.85
2022-11-10T15:14:39.837Z,322.88
2022-11-10T15:17:05.037Z,329.44
2022-11-10T15:19:35.260Z,355.96
2022-11-10T15:22:16.288Z,356.67
2022-11-10T15:24:45.746Z,312.33
2022-11-10T15:27:25.703Z,309.65
2022-11-10T15:29:51.308Z,324.80
2022-11-10T15:32:23.114Z,331.64
2022-11-10T15:34:49.914Z,335.24
2022-11-10T15:37:31.676Z,335.95
2022-11-10T15:40:33.313Z,327.85
2022-11-10T15:43:12.492Z,359.81
2022-11-10T15:45:37.072Z,355.86
2022-11-10T15:48:03.107Z,352.91
2022-11-10T15:50:28.008Z,390.06
2022-11-10T15:52:56.081Z,410.91
2022-11-10T15:55:26.564Z,449.65
2022-11-10T15:57:51.289Z,491.71
2022-11-10T16:00:19.485Z,413.35
2022-11-10T16:02:46.537Z,403.91
2022-11-10T16:05:16.085Z,472.36
2022-11-10T16:07:44.872Z,506.70
2022-11-10T16:10:12.795Z,523.19
2022-11-10T16:12:39.330Z,527.59
2022-11-10T16:15:06.591Z,528.03
2022-11-10T16:17:31.688Z,461.74
2022-11-10T16:19:56.844Z,418.20
2022-11-10T16:22:22.871Z,404.60
2022-11-10T16:24:47.962Z,397.50
2022-11-10T16:27:18.799Z,346.34
2022-11-10T16:29:46.304Z,350.23
2022-11-10T16:32:13.979Z,351.89
2022-11-10T16:34:39.036Z,354.52
2022-11-10T16:37:05.263Z,342.91
2022-11-10T16:39:30.666Z,355.37
2022-11-10T16:41:55.720Z,359.07
2022-11-10T16:44:25.478Z,358.71
2022-11-10T16:46:57.652Z,361.65
2022-11-10T16:49:34.472Z,367.26
2022-11-10T16:51:59.532Z,386.00
2022-11-10T16:54:25.087Z,409.72
2022-11-10T16:56:50.192Z,435.09
2022-11-10T16:59:15.089Z,448.29
2022-11-10T17:01:47.515Z,448.65
2022-11-10T17:04:16.878Z,458.87
2022-11-10T17:06:43.724Z,486.73
2022-11-10T17:09:18.760Z,490.77
2022-11-10T17:11:44.669Z,492.14
2022-11-10T17:14:10.126Z,530.47
2022-11-10T17:16:39.220Z,600.20
2022-11-10T17:19:10.981Z,585.62
2022-11-10T17:21:39.937Z,566.40
2022-11-10T17:24:08.084Z,559.58
2022-11-10T17:26:34.538Z,541.62
2022-11-10T17:28:59.444Z,529.26
2022-11-10T17:31:25.047Z,491.05
2022-11-10T17:33:49.785Z,545.57
2022-11-10T17:36:24.322Z,517.95
2022-11-10T17:38:50.294Z,546.28
2022-11-10T17:41:20.920Z,566.89
2022-11-10T17:43:46.310Z,563.87
2022-11-10T17:46:12.516Z,604.69
2022-11-10T17:48:48.031Z,640.85
2022-11-10T17:51:26.067Z,644.13
2022-11-10T17:53:52.192Z,625.05
2022-11-10T17:56:18.468Z,626.63
2022-11-10T17:58:43.628Z,667.41
2022-11-10T18:01:17.745Z,675.89
2022-11-10T18:03:46.247Z,716.06
2022-11-10T18:06:11.855Z,733.26
2022-11-10T18:08:39.744Z,756.85
2022-11-10T18:11:05.476Z,650.90
2022-11-10T18:13:30.267Z,574.52
2022-11-10T18:16:01.717Z,568.51
2022-11-10T18:18:27.695Z,505.66
2022-11-10T18:20:54.331Z,476.69
2022-11-10T18:23:19.443Z,453.32
2022-11-10T18:25:47.556Z,461.24
2022-11-10T18:28:17.331Z,451.59
2022-11-10T18:30:42.881Z,450.86
2022-11-10T18:33:10.390Z,441.68
2022-11-10T18:35:38.720Z,429.80
2022-11-10T18:38:03.364Z,431.63
2022-11-10T18:40:28.824Z,434.76
2022-11-10T18:43:07.140Z,423.50
2022-11-10T18:45:33.174Z,428.31
2022-11-10T18:48:03.239Z,421.96
2022-11-10T18:50:27.920Z,436.34
2022-11-10T18:52:53.635Z,415.03
2022-11-10T18:55:20.383Z,377.70
2022-11-10T18:57:45.217Z,338.63
2022-11-10T19:00:19.094Z,352.31
2022-11-10T19:02:46.386Z,310.59
2022-11-10T19:05:12.977Z,292.74
2022-11-10T19:07:37.623Z,275.08
2022-11-10T19:10:02.912Z,253.48
2022-11-10T19:12:28.841Z,256.02
2022-11-10T19:14:54.249Z,242.87
2022-11-10T19:17:22.225Z,253.43
2022-11-10T19:19:52.047Z,263.22
2022-11-10T19:22:20.573Z,274.82
2022-11-10T19:25:06.612Z,252.82
2022-11-10T19:27:31.768Z,255.16
2022-11-10T19:29:56.680Z,257.08
2022-11-10T19:32:25.160Z,236.16
2022-11-10T19:34:50.460Z,230.67
2022-11-10T19:37:21.340Z,242.01
2022-11-10T19:39:46.299Z,224.09
2022-11-10T19:42:12.025Z,215.35
2022-11-10T19:44:37.526Z,221.56
2022-11-10T19:47:02.772Z,213.44
2022-11-10T19:49:31.008Z,220.55
2022-11-10T19:51:55.906Z,208.63
2022-11-10T19:54:20.543Z,209.35
2022-11-10T19:56:46.352Z,215.35
2022-11-10T19:59:13.166Z,221.09
2022-11-10T20:01:38.266Z,242.82
2022-11-10T20:04:06.219Z,297.48
2022-11-10T20:06:34.991Z,363.67
2022-11-10T20:09:00.841Z,391.97
2022-11-10T20:11:29.836Z,488.84
2022-11-10T20:13:59.558Z,552.90
2022-11-10T20:16:25.582Z,674.07
2022-11-10T20:18:51.298Z,796.22
2022-11-10T20:21:21.253Z,802.52
2022-11-10T20:23:48.904Z,760.22
2022-11-10T20:26:17.705Z,706.18
2022-11-10T20:28:44.118Z,646.37
2022-11-10T20:31:13.004Z,590.41
2022-11-10T20:33:41.579Z,576.00
2022-11-10T20:36:20.780Z,519.18
2022-11-10T20:38:54.230Z,544.55
2022-11-10T20:41:23.013Z,552.73
2022-11-10T20:43:49.389Z,588.60
2022-11-10T20:49:12.654Z,588.55
2022-11-10T20:51:40.291Z,600.81
2022-11-10T20:54:07.494Z,609.45
2022-11-10T20:56:33.011Z,604.88
2022-11-10T20:58:57.224Z,617.39
2022-11-10T21:01:36.665Z,630.78
2022-11-10T21:04:11.138Z,627.31
2022-11-10T21:06:35.394Z,605.14
2022-11-10T21:08:59.868Z,590.51
2022-11-10T21:11:54.549Z,595.79
2022-11-10T21:14:18.923Z,592.69
2022-11-10T21:16:44.379Z,580.50
2022-11-10T21:19:13.994Z,575.85
2022-11-10T21:21:38.549Z,575.21
2022-11-10T21:24:11.047Z,560.04
2022-11-10T21:26:43.185Z,556.67
2022-11-10T21:29:09.731Z,539.39
2022-11-10T21:31:38.851Z,527.00
2022-11-10T21:34:03.956Z,500.80
2022-11-10T21:36:30.274Z,517.98
2022-11-10T21:38:54.458Z,524.92
2022-11-10T21:41:18.904Z,525.24
2022-11-10T21:43:46.757Z,515.86
2022-11-10T21:46:11.738Z,493.50
2022-11-10T21:48:35.981Z,475.94
2022-11-10T21:51:04.102Z,494.10
2022-11-10T21:53:36.343Z,475.36
2022-11-10T21:56:02.770Z,489.28
2022-11-10T21:58:29.773Z,446.76
2022-11-10T22:01:04.835Z,411.07
2022-11-10T22:03:31.458Z,379.52
2022-11-10T22:05:55.650Z,369.55
2022-11-10T22:08:22.321Z,354.66
2022-11-10T22:11:00.099Z,359.91
2022-11-10T22:13:37.137Z,342.63
2022-11-10T22:16:24.368Z,352.37
2022-11-10T22:18:49.852Z,334.34
2022-11-10T22:21:16.088Z,329.29
2022-11-10T22:23:56.516Z,325.61
2022-11-10T22:26:22.808Z,329.23
2022-11-10T22:28:48.540Z,323.43
2022-11-10T22:31:16.144Z,329.96
2022-11-10T22:33:44.548Z,326.24
2022-11-10T22:36:15.448Z,305.43
2022-11-10T22:38:45.197Z,300.31
2022-11-10T22:41:29.048Z,292.04
2022-11-10T22:44:08.171Z,280.61
2022-11-10T22:46:39.633Z,266.84
2022-11-10T22:49:04.651Z,269.12
2022-11-10T22:51:32.729Z,283.69
2022-11-10T22:53:57.794Z,272.82
2022-11-10T22:56:23.745Z,278.23
2022-11-10T22:58:48.543Z,270.77
2022-11-10T23:01:15.711Z,285.04
2022-11-10T23:03:44.246Z,292.14
2022-11-10T23:06:09.565Z,308.83
2022-11-10T23:08:35.994Z,296.65
2022-11-10T23:11:02.585Z,299.65
2022-11-10T23:13:26.667Z,318.42
2022-11-10T23:15:54.449Z,340.66
2022-11-10T23:18:19.109Z,350.64
2022-11-10T23:20:46.429Z,357.10
2022-11-10T23:23:11.793Z,360.66
2022-11-10T23:25:38.482Z,377.58
2022-11-10T23:28:02.859Z,400.29
2022-11-10T23:30:28.149Z,417.40
2022-11-10T23:32:52.796Z,429.25
2022-11-10T23:35:17.107Z,435.77
2022-11-10T23:37:45.011Z,437.07
2022-11-10T23:40:12.294Z,407.37
2022-11-10T23:42:36.549Z,397.34
2022-11-10T23:45:02.000Z,389.34
2022-11-10T23:47:28.788Z,376.24
2022-11-10T23:49:52.959Z,362.95
2022-11-10T23:52:19.516Z,336.60
2022-11-10T23:54:46.677Z,316.30
2022-11-10T23:57:11.408Z,299.96
2022-11-10T23:59:36.548Z,287.81
